sensor_id;sensor_type;location;lat;lon;timestamp;temperature;humidity
728;DHT22;347;48.780;9.158;2024-03-08T00:01:12;9.20;19.80
728;DHT22;347;48.780;9.158;2024-03-08T00:03:38;9.30;19.60
728;DHT22;347;48.780;9.158;2024-03-08T00:06:05;9.30;19.40
728;DHT22;347;48.780;9.158;2024-03-08T00:08:31;9.30;19.50
728;DHT22;347;48.780;9.158;2024-03-08T00:10:59;9.30;19.40
728;DHT22;347;48.780;9.158;2024-03-08T00:13:25;9.40;19.40
728;DHT22;347;48.780;9.158;2024-03-08T00:15:51;9.30;19.60
728;DHT22;347;48.780;9.158;2024-03-08T00:18:16;9.30;19.50
728;DHT22;347;48.780;9.158;2024-03-08T00:20:42;9.20;19.50
728;DHT22;347;48.780;9.158;2024-03-08T00:23:09;9.20;19.90
728;DHT22;347;48.780;9.158;2024-03-08T00:25:36;9.10;19.40
728;DHT22;347;48.780;9.158;2024-03-08T00:28:01;9.00;19.80
728;DHT22;347;48.780;9.158;2024-03-08T00:30:27;8.90;19.60
728;DHT22;347;48.780;9.158;2024-03-08T00:32:52;8.80;19.80
728;DHT22;347;48.780;9.158;2024-03-08T00:35:18;8.70;20.50
728;DHT22;347;48.780;9.158;2024-03-08T00:37:43;8.60;20.30
728;DHT22;347;48.780;9.158;2024-03-08T00:40:12;8.40;20.60
728;DHT22;347;48.780;9.158;2024-03-08T00:42:38;8.30;21.40
728;DHT22;347;48.780;9.158;2024-03-08T00:45:05;8.20;21.80
728;DHT22;347;48.780;9.158;2024-03-08T00:47:31;8.20;21.80
728;DHT22;347;48.780;9.158;2024-03-08T00:49:57;8.30;21.50
728;DHT22;347;48.780;9.158;2024-03-08T00:52:23;8.50;21.20
728;DHT22;347;48.780;9.158;2024-03-08T00:54:49;8.70;20.60
728;DHT22;347;48.780;9.158;2024-03-08T00:57:22;8.80;20.30
728;DHT22;347;48.780;9.158;2024-03-08T00:59:48;8.90;20.00
728;DHT22;347;48.780;9.158;2024-03-08T01:02:14;8.90;19.80
728;DHT22;347;48.780;9.158;2024-03-08T01:04:39;9.00;19.70
728;DHT22;347;48.780;9.158;2024-03-08T01:07:05;9.00;19.40
728;DHT22;347;48.780;9.158;2024-03-08T01:09:31;9.00;19.40
728;DHT22;347;48.780;9.158;2024-03-08T01:11:59;8.90;19.40
728;DHT22;347;48.780;9.158;2024-03-08T01:14:25;8.90;19.40
728;DHT22;347;48.780;9.158;2024-03-08T01:16:56;8.90;19.20
728;DHT22;347;48.780;9.158;2024-03-08T01:19:22;9.00;19.20
728;DHT22;347;48.780;9.158;2024-03-08T01:21:49;9.00;19.20
728;DHT22;347;48.780;9.158;2024-03-08T01:24:14;8.90;19.00
728;DHT22;347;48.780;9.158;2024-03-08T01:26:40;8.90;19.20
728;DHT22;347;48.780;9.158;2024-03-08T01:29:11;8.90;19.10
728;DHT22;347;48.780;9.158;2024-03-08T01:31:37;8.90;19.10
728;DHT22;347;48.780;9.158;2024-03-08T01:34:02;8.90;19.10
728;DHT22;347;48.780;9.158;2024-03-08T01:36:28;8.90;19.00
728;DHT22;347;48.780;9.158;2024-03-08T01:38:54;8.90;19.00
728;DHT22;347;48.780;9.158;2024-03-08T01:41:19;8.90;18.90
728;DHT22;347;48.780;9.158;2024-03-08T01:43:49;8.80;18.90
728;DHT22;347;48.780;9.158;2024-03-08T01:46:18;8.80;19.00
728;DHT22;347;48.780;9.158;2024-03-08T01:48:44;8.70;19.20
728;DHT22;347;48.780;9.158;2024-03-08T01:51:11;8.70;19.20
728;DHT22;347;48.780;9.158;2024-03-08T01:53:37;8.70;19.20
728;DHT22;347;48.780;9.158;2024-03-08T01:56:04;8.60;19.20
728;DHT22;347;48.780;9.158;2024-03-08T01:58:31;8.60;19.20
728;DHT22;347;48.780;9.158;2024-03-08T02:00:58;8.60;19.30
728;DHT22;347;48.780;9.158;2024-03-08T02:03:24;8.50;19.20
728;DHT22;347;48.780;9.158;2024-03-08T02:05:53;8.50;19.20
728;DHT22;347;48.780;9.158;2024-03-08T02:08:20;8.50;19.20
728;DHT22;347;48.780;9.158;2024-03-08T02:10:48;8.60;19.10
728;DHT22;347;48.780;9.158;2024-03-08T02:13:14;8.60;19.10
728;DHT22;347;48.780;9.158;2024-03-08T02:15:53;8.50;19.00
728;DHT22;347;48.780;9.158;2024-03-08T02:18:19;8.50;19.10
728;DHT22;347;48.780;9.158;2024-03-08T02:20:47;8.50;18.90
728;DHT22;347;48.780;9.158;2024-03-08T02:23:13;8.50;19.00
728;DHT22;347;48.780;9.158;2024-03-08T02:25:45;8.50;19.10
728;DHT22;347;48.780;9.158;2024-03-08T02:28:12;8.40;19.40
728;DHT22;347;48.780;9.158;2024-03-08T02:30:38;8.40;19.20
728;DHT22;347;48.780;9.158;2024-03-08T02:33:05;8.40;19.30
728;DHT22;347;48.780;9.158;2024-03-08T02:35:30;8.40;19.00
728;DHT22;347;48.780;9.158;2024-03-08T02:37:56;8.40;19.00
728;DHT22;347;48.780;9.158;2024-03-08T02:40:25;8.40;19.00
728;DHT22;347;48.780;9.158;2024-03-08T02:42:51;8.40;19.00
728;DHT22;347;48.780;9.158;2024-03-08T02:45:16;8.40;19.10
728;DHT22;347;48.780;9.158;2024-03-08T02:47:42;8.40;19.00
728;DHT22;347;48.780;9.158;2024-03-08T02:50:08;8.40;18.90
728;DHT22;347;48.780;9.158;2024-03-08T02:52:34;8.40;18.80
728;DHT22;347;48.780;9.158;2024-03-08T02:55:01;8.40;18.80
728;DHT22;347;48.780;9.158;2024-03-08T02:57:26;8.40;18.80
728;DHT22;347;48.780;9.158;2024-03-08T02:59:53;8.40;18.90
728;DHT22;347;48.780;9.158;2024-03-08T03:02:19;8.30;18.80
728;DHT22;347;48.780;9.158;2024-03-08T03:04:44;8.30;18.80
728;DHT22;347;48.780;9.158;2024-03-08T03:07:10;8.30;18.80
728;DHT22;347;48.780;9.158;2024-03-08T03:09:36;8.30;19.00
728;DHT22;347;48.780;9.158;2024-03-08T03:12:02;8.40;18.80
728;DHT22;347;48.780;9.158;2024-03-08T03:14:28;8.30;19.00
728;DHT22;347;48.780;9.158;2024-03-08T03:16:53;8.30;18.90
728;DHT22;347;48.780;9.158;2024-03-08T03:19:19;8.20;18.70
728;DHT22;347;48.780;9.158;2024-03-08T03:21:45;8.20;18.70
728;DHT22;347;48.780;9.158;2024-03-08T03:24:11;8.30;18.80
728;DHT22;347;48.780;9.158;2024-03-08T03:26:38;8.30;18.70
728;DHT22;347;48.780;9.158;2024-03-08T03:29:06;8.20;18.80
728;DHT22;347;48.780;9.158;2024-03-08T03:31:36;8.20;18.80
728;DHT22;347;48.780;9.158;2024-03-08T03:34:02;8.10;19.80
728;DHT22;347;48.780;9.158;2024-03-08T03:36:30;8.20;18.90
728;DHT22;347;48.780;9.158;2024-03-08T03:38:55;8.20;19.30
728;DHT22;347;48.780;9.158;2024-03-08T03:41:38;8.20;19.00
728;DHT22;347;48.780;9.158;2024-03-08T03:44:05;8.20;18.40
728;DHT22;347;48.780;9.158;2024-03-08T03:46:34;8.20;19.10
728;DHT22;347;48.780;9.158;2024-03-08T03:48:59;8.20;18.70
728;DHT22;347;48.780;9.158;2024-03-08T03:51:25;8.10;18.80
728;DHT22;347;48.780;9.158;2024-03-08T03:53:51;8.10;18.90
728;DHT22;347;48.780;9.158;2024-03-08T03:56:18;8.20;18.80
728;DHT22;347;48.780;9.158;2024-03-08T03:58:44;8.20;18.40
728;DHT22;347;48.780;9.158;2024-03-08T04:01:09;8.10;18.90
728;DHT22;347;48.780;9.158;2024-03-08T04:03:35;8.00;18.80
728;DHT22;347;48.780;9.158;2024-03-08T04:06:01;8.00;19.70
728;DHT22;347;48.780;9.158;2024-03-08T04:08:27;8.10;18.50
728;DHT22;347;48.780;9.158;2024-03-08T04:10:53;8.10;18.60
728;DHT22;347;48.780;9.158;2024-03-08T04:13:18;8.10;18.40
728;DHT22;347;48.780;9.158;2024-03-08T04:15:45;8.20;18.10
728;DHT22;347;48.780;9.158;2024-03-08T04:18:13;8.20;18.00
728;DHT22;347;48.780;9.158;2024-03-08T04:20:39;8.30;17.80
728;DHT22;347;48.780;9.158;2024-03-08T04:23:05;8.20;18.20
728;DHT22;347;48.780;9.158;2024-03-08T04:25:31;8.20;18.20
728;DHT22;347;48.780;9.158;2024-03-08T04:27:56;8.20;18.60
728;DHT22;347;48.780;9.158;2024-03-08T04:30:22;8.30;17.90
728;DHT22;347;48.780;9.158;2024-03-08T04:32:48;8.10;18.10
728;DHT22;347;48.780;9.158;2024-03-08T04:35:14;8.20;18.10
728;DHT22;347;48.780;9.158;2024-03-08T04:37:40;8.30;17.70
728;DHT22;347;48.780;9.158;2024-03-08T04:40:06;8.50;17.50
728;DHT22;347;48.780;9.158;2024-03-08T04:42:32;8.60;17.20
728;DHT22;347;48.780;9.158;2024-03-08T04:44:59;8.70;16.90
728;DHT22;347;48.780;9.158;2024-03-08T04:47:28;8.70;16.70
728;DHT22;347;48.780;9.158;2024-03-08T04:49:53;8.70;16.60
728;DHT22;347;48.780;9.158;2024-03-08T04:52:20;8.70;16.50
728;DHT22;347;48.780;9.158;2024-03-08T04:54:47;8.70;16.60
728;DHT22;347;48.780;9.158;2024-03-08T04:57:13;8.70;16.70
728;DHT22;347;48.780;9.158;2024-03-08T04:59:38;8.60;16.60
728;DHT22;347;48.780;9.158;2024-03-08T05:02:04;8.70;16.80
728;DHT22;347;48.780;9.158;2024-03-08T05:04:29;8.50;17.20
728;DHT22;347;48.780;9.158;2024-03-08T05:06:55;8.40;17.00
728;DHT22;347;48.780;9.158;2024-03-08T05:09:21;8.20;17.30
728;DHT22;347;48.780;9.158;2024-03-08T05:11:47;8.10;17.50
728;DHT22;347;48.780;9.158;2024-03-08T05:14:14;8.20;18.10
728;DHT22;347;48.780;9.158;2024-03-08T05:16:45;8.10;17.70
728;DHT22;347;48.780;9.158;2024-03-08T05:19:15;8.10;18.10
728;DHT22;347;48.780;9.158;2024-03-08T05:21:43;8.10;17.80
728;DHT22;347;48.780;9.158;2024-03-08T05:24:09;8.10;17.80
728;DHT22;347;48.780;9.158;2024-03-08T05:26:35;7.90;18.30
728;DHT22;347;48.780;9.158;2024-03-08T05:29:02;7.80;18.40
728;DHT22;347;48.780;9.158;2024-03-08T05:31:28;7.70;19.00
728;DHT22;347;48.780;9.158;2024-03-08T05:33:54;7.50;19.50
728;DHT22;347;48.780;9.158;2024-03-08T05:36:20;7.40;19.60
728;DHT22;347;48.780;9.158;2024-03-08T05:38:46;7.30;20.10
728;DHT22;347;48.780;9.158;2024-03-08T05:41:12;7.30;20.00
728;DHT22;347;48.780;9.158;2024-03-08T05:43:38;7.30;20.00
728;DHT22;347;48.780;9.158;2024-03-08T05:46:10;7.30;20.00
728;DHT22;347;48.780;9.158;2024-03-08T05:48:37;7.40;19.70
728;DHT22;347;48.780;9.158;2024-03-08T05:51:03;7.60;19.60
728;DHT22;347;48.780;9.158;2024-03-08T05:53:29;7.70;19.20
728;DHT22;347;48.780;9.158;2024-03-08T05:55:58;7.80;18.90
728;DHT22;347;48.780;9.158;2024-03-08T05:58:24;7.90;19.00
728;DHT22;347;48.780;9.158;2024-03-08T06:00:49;7.60;19.40
728;DHT22;347;48.780;9.158;2024-03-08T06:03:15;7.40;19.70
728;DHT22;347;48.780;9.158;2024-03-08T06:05:41;7.50;19.60
728;DHT22;347;48.780;9.158;2024-03-08T06:08:07;7.30;20.00
728;DHT22;347;48.780;9.158;2024-03-08T06:10:33;7.40;21.70
728;DHT22;347;48.780;9.158;2024-03-08T06:12:59;7.40;20.30
728;DHT22;347;48.780;9.158;2024-03-08T06:15:25;7.30;20.10
728;DHT22;347;48.780;9.158;2024-03-08T06:17:53;7.10;20.80
728;DHT22;347;48.780;9.158;2024-03-08T06:20:18;7.00;21.00
728;DHT22;347;48.780;9.158;2024-03-08T06:22:44;7.10;20.70
728;DHT22;347;48.780;9.158;2024-03-08T06:25:11;7.20;20.80
728;DHT22;347;48.780;9.158;2024-03-08T06:27:40;7.30;20.90
728;DHT22;347;48.780;9.158;2024-03-08T06:30:08;7.30;20.70
728;DHT22;347;48.780;9.158;2024-03-08T06:32:37;7.30;19.90
728;DHT22;347;48.780;9.158;2024-03-08T06:35:04;7.20;20.50
728;DHT22;347;48.780;9.158;2024-03-08T06:37:33;7.10;20.60
728;DHT22;347;48.780;9.158;2024-03-08T06:40:00;7.10;20.30
728;DHT22;347;48.780;9.158;2024-03-08T06:42:34;7.10;20.80
728;DHT22;347;48.780;9.158;2024-03-08T06:45:04;7.10;20.70
728;DHT22;347;48.780;9.158;2024-03-08T06:47:52;7.10;20.80
728;DHT22;347;48.780;9.158;2024-03-08T06:50:20;7.20;20.60
728;DHT22;347;48.780;9.158;2024-03-08T06:52:45;7.20;20.40
728;DHT22;347;48.780;9.158;2024-03-08T06:55:27;7.20;20.50
728;DHT22;347;48.780;9.158;2024-03-08T07:04:48;6.90;20.70
728;DHT22;347;48.780;9.158;2024-03-08T07:14:29;6.60;22.50
728;DHT22;347;48.780;9.158;2024-03-08T07:17:17;6.70;22.80
728;DHT22;347;48.780;9.158;2024-03-08T07:19:43;6.80;23.10
728;DHT22;347;48.780;9.158;2024-03-08T07:22:09;6.90;22.40
728;DHT22;347;48.780;9.158;2024-03-08T07:24:37;6.70;22.20
728;DHT22;347;48.780;9.158;2024-03-08T07:27:05;6.70;22.90
728;DHT22;347;48.780;9.158;2024-03-08T07:29:36;6.80;22.80
728;DHT22;347;48.780;9.158;2024-03-08T07:32:03;6.90;22.00
728;DHT22;347;48.780;9.158;2024-03-08T07:34:51;6.90;22.00
728;DHT22;347;48.780;9.158;2024-03-08T07:37:17;7.00;22.00
728;DHT22;347;48.780;9.158;2024-03-08T07:39:43;7.10;21.60
728;DHT22;347;48.780;9.158;2024-03-08T07:42:09;7.10;22.10
728;DHT22;347;48.780;9.158;2024-03-08T07:44:35;7.20;21.70
728;DHT22;347;48.780;9.158;2024-03-08T07:47:02;7.10;21.90
728;DHT22;347;48.780;9.158;2024-03-08T07:49:44;7.10;21.80
728;DHT22;347;48.780;9.158;2024-03-08T07:52:09;7.20;21.40
728;DHT22;347;48.780;9.158;2024-03-08T07:54:41;7.20;21.80
728;DHT22;347;48.780;9.158;2024-03-08T07:57:24;7.20;21.50
728;DHT22;347;48.780;9.158;2024-03-08T07:59:51;7.20;21.30
728;DHT22;347;48.780;9.158;2024-03-08T08:02:19;7.20;21.20
728;DHT22;347;48.780;9.158;2024-03-08T08:04:52;7.20;21.10
728;DHT22;347;48.780;9.158;2024-03-08T08:07:18;7.20;21.60
728;DHT22;347;48.780;9.158;2024-03-08T08:09:44;7.30;21.30
728;DHT22;347;48.780;9.158;2024-03-08T08:12:09;7.20;22.00
728;DHT22;347;48.780;9.158;2024-03-08T08:14:38;7.20;21.70
728;DHT22;347;48.780;9.158;2024-03-08T08:17:07;7.00;21.20
728;DHT22;347;48.780;9.158;2024-03-08T08:19:34;7.00;22.00
728;DHT22;347;48.780;9.158;2024-03-08T08:22:01;7.00;21.40
728;DHT22;347;48.780;9.158;2024-03-08T08:24:27;6.90;22.00
728;DHT22;347;48.780;9.158;2024-03-08T08:26:53;6.90;22.00
728;DHT22;347;48.780;9.158;2024-03-08T08:29:19;7.00;22.00
728;DHT22;347;48.780;9.158;2024-03-08T08:31:46;6.90;22.00
728;DHT22;347;48.780;9.158;2024-03-08T08:34:11;6.90;22.00
728;DHT22;347;48.780;9.158;2024-03-08T08:36:39;7.00;22.00
728;DHT22;347;48.780;9.158;2024-03-08T08:39:05;7.10;22.10
728;DHT22;347;48.780;9.158;2024-03-08T08:41:37;7.10;22.10
728;DHT22;347;48.780;9.158;2024-03-08T08:44:03;7.10;21.80
728;DHT22;347;48.780;9.158;2024-03-08T08:46:29;7.00;22.00
728;DHT22;347;48.780;9.158;2024-03-08T08:48:54;6.90;22.30
728;DHT22;347;48.780;9.158;2024-03-08T08:51:20;6.90;22.30
728;DHT22;347;48.780;9.158;2024-03-08T08:53:46;7.10;22.10
728;DHT22;347;48.780;9.158;2024-03-08T08:56:13;7.00;22.00
728;DHT22;347;48.780;9.158;2024-03-08T08:58:42;7.00;22.10
728;DHT22;347;48.780;9.158;2024-03-08T09:01:11;6.70;22.70
728;DHT22;347;48.780;9.158;2024-03-08T09:03:37;6.70;22.70
728;DHT22;347;48.780;9.158;2024-03-08T09:06:09;6.80;23.30
728;DHT22;347;48.780;9.158;2024-03-08T09:08:38;6.80;22.70
728;DHT22;347;48.780;9.158;2024-03-08T09:11:04;6.70;22.50
728;DHT22;347;48.780;9.158;2024-03-08T09:13:30;6.70;22.90
728;DHT22;347;48.780;9.158;2024-03-08T09:15:56;6.90;22.90
728;DHT22;347;48.780;9.158;2024-03-08T09:18:22;7.10;22.50
728;DHT22;347;48.780;9.158;2024-03-08T09:20:48;7.20;22.20
728;DHT22;347;48.780;9.158;2024-03-08T09:23:13;7.20;22.60
728;DHT22;347;48.780;9.158;2024-03-08T09:25:40;7.20;22.10
728;DHT22;347;48.780;9.158;2024-03-08T09:28:06;7.30;21.60
728;DHT22;347;48.780;9.158;2024-03-08T09:30:31;7.10;22.10
728;DHT22;347;48.780;9.158;2024-03-08T09:32:57;7.10;22.10
728;DHT22;347;48.780;9.158;2024-03-08T09:35:22;7.10;22.10
728;DHT22;347;48.780;9.158;2024-03-08T09:37:48;7.10;22.10
728;DHT22;347;48.780;9.158;2024-03-08T09:40:16;7.00;22.00
728;DHT22;347;48.780;9.158;2024-03-08T09:42:46;7.10;22.10
728;DHT22;347;48.780;9.158;2024-03-08T09:45:13;7.20;22.70
728;DHT22;347;48.780;9.158;2024-03-08T09:47:53;7.20;22.10
728;DHT22;347;48.780;9.158;2024-03-08T09:50:32;7.40;22.00
728;DHT22;347;48.780;9.158;2024-03-08T09:53:19;7.50;22.00
728;DHT22;347;48.780;9.158;2024-03-08T09:55:44;7.40;22.30
728;DHT22;347;48.780;9.158;2024-03-08T09:58:15;7.40;22.00
728;DHT22;347;48.780;9.158;2024-03-08T10:00:47;7.50;21.30
728;DHT22;347;48.780;9.158;2024-03-08T10:03:13;7.60;21.10
728;DHT22;347;48.780;9.158;2024-03-08T10:05:40;7.80;20.90
728;DHT22;347;48.780;9.158;2024-03-08T10:08:06;7.90;20.80
728;DHT22;347;48.780;9.158;2024-03-08T10:10:34;7.70;20.70
728;DHT22;347;48.780;9.158;2024-03-08T10:13:00;7.80;20.70
728;DHT22;347;48.780;9.158;2024-03-08T10:15:29;7.80;21.40
728;DHT22;347;48.780;9.158;2024-03-08T10:17:56;7.80;20.70
728;DHT22;347;48.780;9.158;2024-03-08T10:20:22;7.80;20.70
728;DHT22;347;48.780;9.158;2024-03-08T10:22:49;7.80;21.30
728;DHT22;347;48.780;9.158;2024-03-08T10:25:15;7.80;20.70
728;DHT22;347;48.780;9.158;2024-03-08T10:27:42;7.70;20.90
728;DHT22;347;48.780;9.158;2024-03-08T10:30:14;7.70;21.20
728;DHT22;347;48.780;9.158;2024-03-08T10:32:41;7.70;21.20
728;DHT22;347;48.780;9.158;2024-03-08T10:35:10;7.60;21.20
728;DHT22;347;48.780;9.158;2024-03-08T10:37:47;7.50;21.30
728;DHT22;347;48.780;9.158;2024-03-08T10:40:17;7.50;21.40
728;DHT22;347;48.780;9.158;2024-03-08T10:42:57;7.60;21.30
728;DHT22;347;48.780;9.158;2024-03-08T10:45:36;7.60;21.50
728;DHT22;347;48.780;9.158;2024-03-08T10:48:31;7.60;21.70
728;DHT22;347;48.780;9.158;2024-03-08T10:50:57;7.80;21.50
728;DHT22;347;48.780;9.158;2024-03-08T10:53:27;7.80;21.50
728;DHT22;347;48.780;9.158;2024-03-08T10:55:53;7.90;20.90
728;DHT22;347;48.780;9.158;2024-03-08T10:58:24;7.90;20.70
728;DHT22;347;48.780;9.158;2024-03-08T11:00:53;7.80;21.10
728;DHT22;347;48.780;9.158;2024-03-08T11:06:07;7.70;21.50
728;DHT22;347;48.780;9.158;2024-03-08T11:08:36;7.80;20.90
728;DHT22;347;48.780;9.158;2024-03-08T11:11:01;8.00;20.80
728;DHT22;347;48.780;9.158;2024-03-08T11:13:34;8.00;20.90
728;DHT22;347;48.780;9.158;2024-03-08T11:16:01;8.10;20.50
728;DHT22;347;48.780;9.158;2024-03-08T11:18:26;8.20;20.30
728;DHT22;347;48.780;9.158;2024-03-08T11:20:55;8.20;21.00
728;DHT22;347;48.780;9.158;2024-03-08T11:23:23;8.10;20.10
728;DHT22;347;48.780;9.158;2024-03-08T11:25:51;8.20;20.30
728;DHT22;347;48.780;9.158;2024-03-08T11:28:23;8.30;19.90
728;DHT22;347;48.780;9.158;2024-03-08T11:33:28;8.30;20.00
728;DHT22;347;48.780;9.158;2024-03-08T11:36:13;8.30;19.80
728;DHT22;347;48.780;9.158;2024-03-08T11:38:45;8.40;20.40
728;DHT22;347;48.780;9.158;2024-03-08T11:41:16;8.40;19.80
728;DHT22;347;48.780;9.158;2024-03-08T11:43:43;8.50;20.10
728;DHT22;347;48.780;9.158;2024-03-08T11:46:10;8.60;19.60
728;DHT22;347;48.780;9.158;2024-03-08T11:48:41;8.70;19.70
728;DHT22;347;48.780;9.158;2024-03-08T11:51:13;8.70;19.40
728;DHT22;347;48.780;9.158;2024-03-08T11:53:40;8.70;19.30
728;DHT22;347;48.780;9.158;2024-03-08T11:56:11;8.80;20.20
728;DHT22;347;48.780;9.158;2024-03-08T11:58:38;8.90;19.10
728;DHT22;347;48.780;9.158;2024-03-08T12:01:10;8.90;18.70
728;DHT22;347;48.780;9.158;2024-03-08T12:03:39;9.00;18.90
728;DHT22;347;48.780;9.158;2024-03-08T12:06:05;8.80;18.70
728;DHT22;347;48.780;9.158;2024-03-08T12:08:31;8.70;19.10
728;DHT22;347;48.780;9.158;2024-03-08T12:10:57;8.80;19.20
728;DHT22;347;48.780;9.158;2024-03-08T12:13:31;8.80;18.60
728;DHT22;347;48.780;9.158;2024-03-08T12:16:02;8.90;19.00
728;DHT22;347;48.780;9.158;2024-03-08T12:18:36;8.80;19.40
728;DHT22;347;48.780;9.158;2024-03-08T12:21:09;8.70;18.80
728;DHT22;347;48.780;9.158;2024-03-08T12:23:47;8.90;19.40
728;DHT22;347;48.780;9.158;2024-03-08T12:26:36;9.00;18.60
728;DHT22;347;48.780;9.158;2024-03-08T12:29:30;9.00;18.40
728;DHT22;347;48.780;9.158;2024-03-08T12:32:04;9.00;18.20
728;DHT22;347;48.780;9.158;2024-03-08T12:34:36;8.90;18.30
728;DHT22;347;48.780;9.158;2024-03-08T12:37:02;8.90;18.90
728;DHT22;347;48.780;9.158;2024-03-08T12:39:29;8.90;18.60
728;DHT22;347;48.780;9.158;2024-03-08T12:41:55;9.00;18.10
728;DHT22;347;48.780;9.158;2024-03-08T12:44:22;9.10;18.50
728;DHT22;347;48.780;9.158;2024-03-08T12:46:48;9.20;18.50
728;DHT22;347;48.780;9.158;2024-03-08T12:49:14;9.40;18.10
728;DHT22;347;48.780;9.158;2024-03-08T12:51:46;9.40;17.90
728;DHT22;347;48.780;9.158;2024-03-08T12:54:12;9.40;17.60
728;DHT22;347;48.780;9.158;2024-03-08T12:56:38;9.60;18.30
728;DHT22;347;48.780;9.158;2024-03-08T12:59:06;9.70;17.50
728;DHT22;347;48.780;9.158;2024-03-08T13:01:33;9.70;17.30
728;DHT22;347;48.780;9.158;2024-03-08T13:03:59;9.70;17.30
728;DHT22;347;48.780;9.158;2024-03-08T13:06:30;9.70;17.50
728;DHT22;347;48.780;9.158;2024-03-08T13:09:02;9.70;17.80
728;DHT22;347;48.780;9.158;2024-03-08T13:11:31;9.80;17.50
728;DHT22;347;48.780;9.158;2024-03-08T13:14:04;9.80;17.30
728;DHT22;347;48.780;9.158;2024-03-08T13:16:31;9.80;17.20
728;DHT22;347;48.780;9.158;2024-03-08T13:19:00;9.90;17.70
728;DHT22;347;48.780;9.158;2024-03-08T13:21:25;9.80;17.30
728;DHT22;347;48.780;9.158;2024-03-08T13:23:51;9.90;17.80
728;DHT22;347;48.780;9.158;2024-03-08T13:26:18;10.10;16.70
728;DHT22;347;48.780;9.158;2024-03-08T13:28:46;10.20;17.00
728;DHT22;347;48.780;9.158;2024-03-08T13:31:11;10.30;15.80
728;DHT22;347;48.780;9.158;2024-03-08T13:33:38;10.30;15.80
728;DHT22;347;48.780;9.158;2024-03-08T13:36:10;10.30;16.90
728;DHT22;347;48.780;9.158;2024-03-08T13:38:46;10.30;15.70
728;DHT22;347;48.780;9.158;2024-03-08T13:41:13;10.30;15.90
728;DHT22;347;48.780;9.158;2024-03-08T13:43:46;10.20;16.00
728;DHT22;347;48.780;9.158;2024-03-08T13:46:12;10.20;16.30
728;DHT22;347;48.780;9.158;2024-03-08T13:48:38;10.30;15.80
728;DHT22;347;48.780;9.158;2024-03-08T13:51:04;10.20;15.70
728;DHT22;347;48.780;9.158;2024-03-08T13:53:32;10.10;16.00
728;DHT22;347;48.780;9.158;2024-03-08T13:55:58;10.20;16.20
728;DHT22;347;48.780;9.158;2024-03-08T13:58:24;10.10;16.30
728;DHT22;347;48.780;9.158;2024-03-08T14:00:49;10.20;16.10
728;DHT22;347;48.780;9.158;2024-03-08T14:03:17;10.30;16.30
728;DHT22;347;48.780;9.158;2024-03-08T14:05:42;10.50;16.80
728;DHT22;347;48.780;9.158;2024-03-08T14:08:09;10.60;15.30
728;DHT22;347;48.780;9.158;2024-03-08T14:10:35;10.60;16.20
728;DHT22;347;48.780;9.158;2024-03-08T14:13:03;10.70;16.00
728;DHT22;347;48.780;9.158;2024-03-08T14:15:33;10.80;16.00
728;DHT22;347;48.780;9.158;2024-03-08T14:18:00;10.70;15.40
728;DHT22;347;48.780;9.158;2024-03-08T14:20:26;10.80;15.50
728;DHT22;347;48.780;9.158;2024-03-08T14:22:56;10.80;14.80
728;DHT22;347;48.780;9.158;2024-03-08T14:25:22;10.90;15.20
728;DHT22;347;48.780;9.158;2024-03-08T14:27:52;10.90;14.30
728;DHT22;347;48.780;9.158;2024-03-08T14:30:29;10.80;14.50
728;DHT22;347;48.780;9.158;2024-03-08T14:33:00;10.70;14.90
728;DHT22;347;48.780;9.158;2024-03-08T14:35:26;10.80;14.90
728;DHT22;347;48.780;9.158;2024-03-08T14:37:52;10.70;14.30
728;DHT22;347;48.780;9.158;2024-03-08T14:40:18;10.60;14.70
728;DHT22;347;48.780;9.158;2024-03-08T14:42:50;10.70;14.70
728;DHT22;347;48.780;9.158;2024-03-08T14:45:16;10.80;14.80
728;DHT22;347;48.780;9.158;2024-03-08T14:47:47;10.80;14.60
728;DHT22;347;48.780;9.158;2024-03-08T14:50:17;10.90;14.40
728;DHT22;347;48.780;9.158;2024-03-08T14:52:43;10.90;14.80
728;DHT22;347;48.780;9.158;2024-03-08T14:55:09;10.90;14.50
728;DHT22;347;48.780;9.158;2024-03-08T14:57:36;10.90;14.30
728;DHT22;347;48.780;9.158;2024-03-08T15:00:02;10.80;14.80
728;DHT22;347;48.780;9.158;2024-03-08T15:02:33;10.90;14.90
728;DHT22;347;48.780;9.158;2024-03-08T15:05:04;10.90;14.90
728;DHT22;347;48.780;9.158;2024-03-08T15:07:34;10.90;14.90
728;DHT22;347;48.780;9.158;2024-03-08T15:10:00;10.90;14.90
728;DHT22;347;48.780;9.158;2024-03-08T15:12:26;11.00;15.40
728;DHT22;347;48.780;9.158;2024-03-08T15:14:52;11.10;14.80
728;DHT22;347;48.780;9.158;2024-03-08T15:17:18;11.20;14.80
728;DHT22;347;48.780;9.158;2024-03-08T15:19:49;11.10;14.80
728;DHT22;347;48.780;9.158;2024-03-08T15:22:15;11.20;15.20
728;DHT22;347;48.780;9.158;2024-03-08T15:24:43;11.30;14.50
728;DHT22;347;48.780;9.158;2024-03-08T15:27:09;11.40;15.10
728;DHT22;347;48.780;9.158;2024-03-08T15:29:34;11.40;14.10
728;DHT22;347;48.780;9.158;2024-03-08T15:32:01;11.40;14.20
728;DHT22;347;48.780;9.158;2024-03-08T15:34:27;11.40;14.60
728;DHT22;347;48.780;9.158;2024-03-08T15:36:53;11.40;14.10
728;DHT22;347;48.780;9.158;2024-03-08T15:39:21;11.30;14.10
728;DHT22;347;48.780;9.158;2024-03-08T15:41:48;11.30;15.50
728;DHT22;347;48.780;9.158;2024-03-08T15:44:14;11.40;14.20
728;DHT22;347;48.780;9.158;2024-03-08T15:46:41;11.30;14.60
728;DHT22;347;48.780;9.158;2024-03-08T15:49:06;11.40;14.40
728;DHT22;347;48.780;9.158;2024-03-08T15:51:32;11.50;14.80
728;DHT22;347;48.780;9.158;2024-03-08T15:53:58;11.50;14.00
728;DHT22;347;48.780;9.158;2024-03-08T15:56:24;11.50;14.60
728;DHT22;347;48.780;9.158;2024-03-08T15:58:51;11.50;14.50
728;DHT22;347;48.780;9.158;2024-03-08T16:01:17;11.60;14.70
728;DHT22;347;48.780;9.158;2024-03-08T16:03:43;11.60;14.60
728;DHT22;347;48.780;9.158;2024-03-08T16:06:11;11.60;13.90
728;DHT22;347;48.780;9.158;2024-03-08T16:08:36;11.50;14.30
728;DHT22;347;48.780;9.158;2024-03-08T16:11:05;11.50;14.60
728;DHT22;347;48.780;9.158;2024-03-08T16:13:34;11.50;14.70
728;DHT22;347;48.780;9.158;2024-03-08T16:16:06;11.60;14.00
728;DHT22;347;48.780;9.158;2024-03-08T16:18:32;11.70;14.40
728;DHT22;347;48.780;9.158;2024-03-08T16:21:00;11.70;14.00
728;DHT22;347;48.780;9.158;2024-03-08T16:23:26;11.80;14.50
728;DHT22;347;48.780;9.158;2024-03-08T16:25:51;11.80;13.90
728;DHT22;347;48.780;9.158;2024-03-08T16:28:18;11.90;14.70
728;DHT22;347;48.780;9.158;2024-03-08T16:30:51;11.90;14.10
728;DHT22;347;48.780;9.158;2024-03-08T16:33:21;12.00;13.80
728;DHT22;347;48.780;9.158;2024-03-08T16:35:47;12.00;14.40
728;DHT22;347;48.780;9.158;2024-03-08T16:40:50;12.10;13.90
728;DHT22;347;48.780;9.158;2024-03-08T16:43:20;12.20;13.60
728;DHT22;347;48.780;9.158;2024-03-08T16:45:49;12.20;13.20
728;DHT22;347;48.780;9.158;2024-03-08T16:48:40;12.10;13.10
728;DHT22;347;48.780;9.158;2024-03-08T16:51:07;12.10;13.40
728;DHT22;347;48.780;9.158;2024-03-08T16:53:34;12.20;13.00
728;DHT22;347;48.780;9.158;2024-03-08T16:56:13;12.30;13.00
728;DHT22;347;48.780;9.158;2024-03-08T16:58:41;12.30;13.10
728;DHT22;347;48.780;9.158;2024-03-08T17:04:58;12.30;12.80
728;DHT22;347;48.780;9.158;2024-03-08T17:08:10;12.30;13.20
728;DHT22;347;48.780;9.158;2024-03-08T18:08:07;11.90;13.30
728;DHT22;347;48.780;9.158;2024-03-08T18:11:10;11.90;13.30
728;DHT22;347;48.780;9.158;2024-03-08T18:17:16;11.90;13.00
728;DHT22;347;48.780;9.158;2024-03-08T18:19:44;11.80;14.10